Time;durP1;ratioP1;P1;durP2;ratioP2;P2;SDS_P1;SDS_P2;PMS_P1;PMS_P2;Temp;Humidity;BMP_temperature;BMP_pressure;BME280_temperature;BME280_humidity;BME280_pressure;Samples;Min_cycle;Max_cycle;Signal;HPM_P1;HPM_P2
2024/01/24 00:00:03;;;;;;;3.37;1.40;;;31.10;99.90;;;;;;4954020;28;20184;-74
2024/01/24 00:02:31;;;;;;;10.23;1.77;;;31.40;99.90;;;;;;4956693;28;20200;-74
2024/01/24 00:04:59;;;;;;;13.27;1.77;;;31.10;99.90;;;;;;4972652;28;20194;-73
2024/01/24 00:07:28;;;;;;;6.55;1.70;;;31.10;99.90;;;;;;4979765;28;20187;-72
2024/01/24 00:09:55;;;;;;;6.60;1.43;;;31.60;99.70;;;;;;4973116;28;20214;-73
2024/01/24 00:12:23;;;;;;;9.30;1.70;;;31.10;99.80;;;;;;4971388;28;20214;-74
2024/01/24 00:14:51;;;;;;;5.50;1.73;;;31.30;99.00;;;;;;4960428;28;20226;-74
2024/01/24 00:17:19;;;;;;;7.45;1.63;;;31.50;98.20;;;;;;4961800;28;20187;-74
2024/01/24 00:19:47;;;;;;;7.63;1.65;;;31.90;95.00;;;;;;4964894;28;20604;-74
2024/01/24 00:22:14;;;;;;;6.90;1.65;;;32.10;89.40;;;;;;4972822;28;20318;-71
2024/01/24 00:24:42;;;;;;;4.32;1.40;;;32.10;93.60;;;;;;4965586;28;20616;-73
2024/01/24 00:27:11;;;;;;;6.15;1.45;;;32.10;94.40;;;;;;4959782;28;20305;-73
2024/01/24 00:29:39;;;;;;;10.07;1.98;;;32.50;89.10;;;;;;4961288;28;20274;-73
2024/01/24 00:32:07;;;;;;;8.60;2.13;;;32.70;81.00;;;;;;4953616;28;20195;-72
2024/01/24 00:34:34;;;;;;;11.02;1.75;;;32.90;80.00;;;;;;4953524;28;20283;-74
2024/01/24 00:37:02;;;;;;;8.35;1.80;;;33.30;72.30;;;;;;4953112;28;20202;-72
2024/01/24 00:39:30;;;;;;;4.97;1.67;;;32.60;64.60;;;;;;4953630;28;20195;-74
2024/01/24 00:41:59;;;;;;;5.82;1.58;;;32.80;63.50;;;;;;4953805;29;20188;-73
2024/01/24 00:44:27;;;;;;;7.35;1.70;;;33.20;67.50;;;;;;4953683;28;20188;-73
2024/01/24 00:46:54;;;;;;;2.50;1.20;;;33.80;53.50;;;;;;4953901;28;20180;-73
2024/01/24 00:49:25;;;;;;;5.43;1.63;;;33.50;49.30;;;;;;4965166;28;20309;-76
2024/01/24 00:51:53;;;;;;;5.78;1.77;;;33.60;53.30;;;;;;4985965;28;20625;-74
2024/01/24 00:54:20;;;;;;;11.48;1.45;;;33.20;52.70;;;;;;4969182;28;20330;-75
2024/01/24 00:56:48;;;;;;;3.22;1.17;;;33.30;57.80;;;;;;4964391;28;20188;-74
2024/01/24 00:59:16;;;;;;;8.00;1.52;;;33.60;48.70;;;;;;4963137;28;20202;-76
2024/01/24 01:01:44;;;;;;;4.03;0.98;;;33.60;50.00;;;;;;4962151;28;20219;-72
2024/01/24 01:04:11;;;;;;;10.80;2.05;;;33.70;47.60;;;;;;4962949;28;20180;-71
2024/01/24 01:06:40;;;;;;;4.53;1.15;;;33.10;47.20;;;;;;4960826;28;20180;-71
2024/01/24 01:09:08;;;;;;;8.95;2.10;;;33.10;56.80;;;;;;4963564;28;20188;-74
2024/01/24 01:11:35;;;;;;;4.72;1.20;;;33.90;50.00;;;;;;4962399;28;20883;-73
2024/01/24 01:14:03;;;;;;;10.38;1.77;;;34.90;55.90;;;;;;4962675;28;20184;-74
2024/01/24 01:16:31;;;;;;;5.82;1.85;;;34.70;41.60;;;;;;4962948;28;20226;-73
2024/01/24 01:18:59;;;;;;;2.95;1.20;;;35.00;41.20;;;;;;4965994;28;20179;-73
2024/01/24 01:21:26;;;;;;;4.53;1.33;;;33.50;39.00;;;;;;4967782;28;20171;-74
2024/01/24 01:23:54;;;;;;;9.77;1.73;;;33.00;45.50;;;;;;4971058;28;20283;-73
2024/01/24 01:26:22;;;;;;;7.38;1.77;;;32.30;53.50;;;;;;4967350;28;20180;-73
2024/01/24 01:28:49;;;;;;;5.28;2.10;;;31.90;58.00;;;;;;4956409;28;20188;-72
2024/01/24 01:31:17;;;;;;;7.45;1.50;;;32.20;62.30;;;;;;4959935;28;20226;-73
2024/01/24 01:33:45;;;;;;;6.53;1.58;;;32.30;67.10;;;;;;4975540;28;20195;-74
2024/01/24 01:36:12;;;;;;;5.22;1.60;;;33.20;63.80;;;;;;4975138;28;20273;-74
2024/01/24 01:38:40;;;;;;;5.15;2.08;;;33.70;62.70;;;;;;4973191;28;20654;-73
2024/01/24 01:41:08;;;;;;;6.90;1.40;;;33.50;53.50;;;;;;4960020;28;20198;-77
2024/01/24 01:43:35;;;;;;;11.23;1.60;;;32.70;60.40;;;;;;4957223;28;20215;-76
2024/01/24 01:46:17;;;;;;;6.68;1.52;;;32.40;68.00;;;;;;4956756;29;20176;-74
2024/01/24 01:48:45;;;;;;;3.58;1.17;;;32.00;67.10;;;;;;4956411;28;20587;-72
2024/01/24 01:51:14;;;;;;;3.17;1.60;;;31.80;69.70;;;;;;4956603;28;20927;-73
2024/01/24 01:53:41;;;;;;;2.70;1.58;;;31.70;71.40;;;;;;4958674;28;20180;-72
2024/01/24 01:56:10;;;;;;;3.85;1.63;;;31.20;85.20;;;;;;4974098;28;20273;-72
2024/01/24 01:58:40;;;;;;;6.72;1.35;;;31.10;81.90;;;;;;4975834;28;20669;-71
2024/01/24 02:01:08;;;;;;;3.78;1.70;;;31.10;90.20;;;;;;4990711;28;20179;-72
2024/01/24 02:03:37;;;;;;;5.80;1.40;;;31.30;91.80;;;;;;4973085;28;20175;-74
2024/01/24 02:06:05;;;;;;;4.35;1.45;;;31.80;88.60;;;;;;4956393;28;20588;-73
2024/01/24 02:08:35;;;;;;;7.20;1.77;;;33.20;79.30;;;;;;4973556;28;20254;-73
2024/01/24 02:11:04;;;;;;;5.13;1.73;;;34.20;74.60;;;;;;4975171;28;20266;-74
2024/01/24 02:13:32;;;;;;;5.15;1.80;;;34.10;59.30;;;;;;4958471;28;20247;-73
2024/01/24 02:16:00;;;;;;;8.52;1.65;;;33.40;62.00;;;;;;4975360;28;20187;-71
2024/01/24 02:18:28;;;;;;;4.40;1.40;;;33.00;67.00;;;;;;4974948;28;20182;-74
2024/01/24 02:20:56;;;;;;;7.97;1.90;;;33.30;60.50;;;;;;4975514;28;20516;-74
2024/01/24 02:26:46;;;;;;;4.32;1.48;;;34.30;55.50;;;;;;4969855;28;20203;-73
2024/01/24 02:29:13;;;;;;;15.07;2.28;;;35.40;53.90;;;;;;4974575;28;20190;-73
2024/01/24 02:31:41;;;;;;;9.57;1.75;;;35.20;52.10;;;;;;4963032;28;20188;-74
2024/01/24 02:34:09;;;;;;;3.92;1.45;;;35.30;47.40;;;;;;4955409;28;20315;-75
2024/01/24 02:36:36;;;;;;;6.43;1.95;;;35.30;43.30;;;;;;4963718;28;20230;-74
2024/01/24 02:39:04;;;;;;;9.68;1.80;;;35.70;43.20;;;;;;4974738;28;20187;-75
2024/01/24 02:41:34;;;;;;;15.10;1.70;;;35.70;44.70;;;;;;4972642;28;20187;-73
2024/01/24 02:44:02;;;;;;;4.22;1.38;;;35.60;49.10;;;;;;4974753;28;20179;-73
2024/01/24 02:46:30;;;;;;;6.03;1.90;;;36.10;48.20;;;;;;4984487;28;20211;-72
2024/01/24 02:48:57;;;;;;;2.75;1.30;;;35.40;43.40;;;;;;4956357;28;20218;-72
2024/01/24 02:51:26;;;;;;;5.95;1.75;;;34.40;51.20;;;;;;4956033;28;20227;-73
2024/01/24 02:53:54;;;;;;;8.63;1.52;;;34.10;53.90;;;;;;4955430;28;20187;-72
2024/01/24 02:56:21;;;;;;;7.10;1.80;;;34.10;60.60;;;;;;4963061;28;20191;-74
2024/01/24 02:58:49;;;;;;;10.10;1.92;;;34.20;62.40;;;;;;4968944;28;20192;-73
2024/01/24 03:01:17;;;;;;;14.75;1.80;;;34.10;58.70;;;;;;4973574;28;20607;-77
2024/01/24 03:03:44;;;;;;;7.68;1.90;;;34.00;61.10;;;;;;4954739;28;20172;-74
2024/01/24 03:06:12;;;;;;;7.88;2.13;;;33.70;70.40;;;;;;4955370;28;20634;-73
2024/01/24 03:08:58;;;;;;;8.82;1.88;;;33.50;72.00;;;;;;4955383;28;20665;-73
2024/01/24 03:11:26;;;;;;;6.82;1.77;;;33.10;77.20;;;;;;4970973;28;20215;-74
2024/01/24 03:13:54;;;;;;;6.07;1.70;;;32.70;83.30;;;;;;4966870;28;20262;-72
2024/01/24 03:16:21;;;;;;;5.63;2.33;;;32.80;83.00;;;;;;4963669;28;20178;-74
2024/01/24 03:18:51;;;;;;;6.30;1.70;;;32.90;86.30;;;;;;4965558;28;20829;-75
2024/01/24 03:21:19;;;;;;;6.28;2.03;;;32.70;90.10;;;;;;4961879;28;20187;-74
2024/01/24 03:23:47;;;;;;;5.97;2.30;;;32.50;92.80;;;;;;4963021;28;20219;-75
2024/01/24 03:26:15;;;;;;;4.88;1.90;;;32.50;92.00;;;;;;4956118;28;20188;-74
2024/01/24 03:28:43;;;;;;;5.13;2.08;;;32.40;95.60;;;;;;4954894;28;20640;-77
2024/01/24 03:31:11;;;;;;;5.38;1.98;;;32.30;99.90;;;;;;4953585;28;20234;-75
2024/01/24 03:33:38;;;;;;;6.35;2.20;;;32.10;97.80;;;;;;4954331;28;20203;-75
2024/01/24 03:36:06;;;;;;;5.88;1.80;;;31.90;99.90;;;;;;4954462;28;20240;-75
2024/01/24 03:38:34;;;;;;;5.97;2.55;;;32.10;98.90;;;;;;4954528;28;20176;-75
2024/01/24 03:41:02;;;;;;;7.65;2.35;;;32.10;99.90;;;;;;4954526;28;20196;-76
2024/01/24 03:43:30;;;;;;;9.25;1.98;;;32.20;99.90;;;;;;4953407;29;20176;-76
2024/01/24 03:45:57;;;;;;;4.78;1.90;;;32.30;99.80;;;;;;4954474;28;20172;-76
2024/01/24 03:48:25;;;;;;;5.65;1.60;;;32.30;99.90;;;;;;4967985;28;20191;-74
2024/01/24 03:50:53;;;;;;;8.88;2.22;;;32.40;99.90;;;;;;4969139;28;20219;-76
2024/01/24 03:53:20;;;;;;;5.47;2.78;;;32.40;99.90;;;;;;4972341;28;20641;-74
2024/01/24 03:55:48;;;;;;;7.28;2.00;;;32.40;99.90;;;;;;4971602;28;20739;-75
2024/01/24 03:58:16;;;;;;;17.77;3.28;;;32.60;97.80;;;;;;4973641;28;20175;-74
2024/01/24 04:00:43;;;;;;;6.85;2.33;;;32.40;97.80;;;;;;4973579;28;20641;-75
2024/01/24 04:03:11;;;;;;;8.27;2.55;;;32.30;99.90;;;;;;4973047;28;20262;-75
2024/01/24 04:05:39;;;;;;;4.25;1.65;;;32.30;99.90;;;;;;4968690;28;20708;-75
2024/01/24 04:08:06;;;;;;;4.72;1.80;;;32.20;99.90;;;;;;4954227;28;20567;-76
2024/01/24 04:10:34;;;;;;;5.35;2.08;;;32.20;97.90;;;;;;4953697;28;20227;-75
2024/01/24 04:13:02;;;;;;;4.60;1.52;;;32.30;99.90;;;;;;4954340;28;20227;-74
2024/01/24 04:15:29;;;;;;;8.00;1.70;;;32.40;99.90;;;;;;4956590;28;20641;-72
2024/01/24 04:17:59;;;;;;;7.13;1.92;;;32.50;99.90;;;;;;4972939;28;20179;-73
2024/01/24 04:20:27;;;;;;;7.20;2.15;;;32.80;99.30;;;;;;4973276;28;20187;-74
2024/01/24 04:22:55;;;;;;;13.55;2.20;;;32.90;96.30;;;;;;4973241;28;20179;-72
2024/01/24 04:25:22;;;;;;;8.82;1.77;;;32.80;98.70;;;;;;4970336;28;20190;-75
2024/01/24 04:27:50;;;;;;;3.70;1.63;;;32.70;96.40;;;;;;4969835;28;20294;-76
2024/01/24 04:30:18;;;;;;;6.05;1.63;;;32.50;97.70;;;;;;4973144;28;20728;-74
2024/01/24 04:32:46;;;;;;;9.45;2.10;;;32.30;99.90;;;;;;4970993;28;20222;-75
2024/01/24 04:35:14;;;;;;;10.40;2.45;;;32.40;98.20;;;;;;4968083;28;20219;-76
2024/01/24 04:37:42;;;;;;;8.60;2.60;;;32.50;98.80;;;;;;4956419;28;20258;-78
2024/01/24 04:40:10;;;;;;;4.55;1.80;;;32.60;97.90;;;;;;4954519;28;20176;-76
2024/01/24 04:42:38;;;;;;;4.47;1.73;;;32.50;97.60;;;;;;4959605;28;20179;-76
2024/01/24 04:45:06;;;;;;;7.82;2.03;;;32.50;94.70;;;;;;4973596;28;20712;-73
2024/01/24 04:47:34;;;;;;;6.47;2.58;;;32.50;94.00;;;;;;4972421;28;20598;-75
2024/01/24 04:50:02;;;;;;;7.72;2.83;;;32.50;95.40;;;;;;4963108;28;20211;-75
2024/01/24 04:52:30;;;;;;;7.53;2.50;;;32.50;95.40;;;;;;4947010;28;20196;-74
2024/01/24 04:54:57;;;;;;;6.07;3.33;;;32.40;95.40;;;;;;4958527;28;20587;-75
2024/01/24 04:57:25;;;;;;;5.53;2.85;;;32.30;98.20;;;;;;4973262;28;20203;-72
2024/01/24 04:59:53;;;;;;;5.30;2.22;;;32.40;99.90;;;;;;4965293;28;20179;-72
2024/01/24 05:02:21;;;;;;;6.65;2.30;;;32.40;99.90;;;;;;4962337;28;20191;-72
2024/01/24 05:04:49;;;;;;;4.50;1.70;;;32.40;98.40;;;;;;4959443;28;20586;-72
2024/01/24 05:07:17;;;;;;;11.15;2.78;;;32.40;97.00;;;;;;4965485;28;20190;-72
2024/01/24 05:09:44;;;;;;;7.88;1.98;;;32.50;98.10;;;;;;4959090;28;20220;-73
2024/01/24 05:12:12;;;;;;;9.32;2.20;;;32.40;96.90;;;;;;4961962;28;20198;-72
2024/01/24 05:14:40;;;;;;;7.68;2.10;;;32.30;97.80;;;;;;4976154;28;20217;-74
2024/01/24 05:17:07;;;;;;;9.32;2.10;;;32.30;97.60;;;;;;4976598;28;20299;-75
2024/01/24 05:19:35;;;;;;;4.47;1.98;;;32.40;98.40;;;;;;4963837;28;20200;-72
2024/01/24 05:22:03;;;;;;;4.03;1.80;;;32.50;97.40;;;;;;4955502;29;20262;-71
2024/01/24 05:24:30;;;;;;;5.95;2.03;;;32.50;95.40;;;;;;4956989;29;20180;-71
2024/01/24 05:26:58;;;;;;;7.13;2.35;;;32.60;96.20;;;;;;4967444;28;20628;-75
2024/01/24 05:29:26;;;;;;;8.50;2.53;;;32.60;96.90;;;;;;4975764;28;20176;-75
2024/01/24 05:31:54;;;;;;;5.00;2.10;;;32.70;97.20;;;;;;4974965;28;20195;-75
2024/01/24 05:34:21;;;;;;;4.50;1.70;;;32.70;95.70;;;;;;4975020;28;20231;-74
2024/01/24 05:36:49;;;;;;;3.97;1.73;;;32.60;97.10;;;;;;4965766;28;20235;-75
2024/01/24 05:39:17;;;;;;;8.93;1.85;;;32.40;98.00;;;;;;4974866;28;20553;-72
2024/01/24 05:41:44;;;;;;;24.27;2.80;;;32.40;99.90;;;;;;4975849;28;20211;-73
2024/01/24 05:44:12;;;;;;;16.33;2.67;;;32.30;99.40;;;;;;4975605;28;20179;-73
2024/01/24 05:46:40;;;;;;;12.20;2.40;;;32.30;99.90;;;;;;4970019;28;20183;-74
2024/01/24 05:49:07;;;;;;;9.05;2.35;;;32.30;99.90;;;;;;4970925;28;20645;-73
2024/01/24 05:51:35;;;;;;;10.98;2.25;;;32.30;99.90;;;;;;4975325;28;20223;-73
2024/01/24 05:54:04;;;;;;;8.82;2.78;;;32.40;99.90;;;;;;4968274;28;20182;-73
2024/01/24 05:56:32;;;;;;;6.90;2.30;;;32.30;99.90;;;;;;4965441;28;20198;-73
2024/01/24 05:58:59;;;;;;;15.10;2.15;;;32.20;99.90;;;;;;4971497;28;20210;-72
2024/01/24 06:01:27;;;;;;;4.90;1.90;;;32.10;99.90;;;;;;4961720;28;20191;-72
2024/01/24 06:03:55;;;;;;;20.35;2.40;;;32.00;99.90;;;;;;4955481;28;20176;-73
2024/01/24 06:06:23;;;;;;;13.45;2.15;;;32.00;99.90;;;;;;4963117;28;20572;-71
2024/01/24 06:08:50;;;;;;;9.27;2.00;;;32.10;99.90;;;;;;4969983;28;20673;-73
2024/01/24 06:11:18;;;;;;;8.25;1.90;;;32.10;99.90;;;;;;4972290;28;20310;-73
2024/01/24 06:13:47;;;;;;;16.90;2.88;;;32.00;99.90;;;;;;4955690;28;20208;-76
2024/01/24 06:16:15;;;;;;;5.60;2.00;;;32.00;99.90;;;;;;4959988;28;20194;-72
2024/01/24 06:18:42;;;;;;;12.35;2.42;;;32.20;99.90;;;;;;4971004;28;20222;-73
2024/01/24 06:21:10;;;;;;;15.65;2.80;;;32.20;99.90;;;;;;4965763;28;20180;-73
2024/01/24 06:23:38;;;;;;;11.90;2.42;;;32.20;99.90;;;;;;4975374;28;20179;-72
2024/01/24 06:26:05;;;;;;;5.93;1.80;;;32.20;99.90;;;;;;4970250;28;20228;-72
2024/01/24 06:28:33;;;;;;;8.77;1.63;;;32.20;99.90;;;;;;4972008;28;20223;-72
2024/01/24 06:31:01;;;;;;;8.48;1.77;;;32.20;99.90;;;;;;4969019;28;20362;-72
2024/01/24 06:33:28;;;;;;;12.25;1.98;;;32.20;99.90;;;;;;4966127;28;20330;-72
2024/01/24 06:35:57;;;;;;;7.53;2.35;;;32.20;99.90;;;;;;4955484;28;20311;-72
2024/01/24 06:38:25;;;;;;;7.50;2.45;;;32.20;99.90;;;;;;4955716;28;20176;-72
2024/01/24 06:40:52;;;;;;;3.33;1.63;;;32.20;99.90;;;;;;4955779;28;20175;-72
2024/01/24 06:43:20;;;;;;;6.30;2.03;;;32.20;99.90;;;;;;4962921;28;20187;-72
2024/01/24 06:45:47;;;;;;;11.98;2.20;;;32.20;99.90;;;;;;4964749;28;20179;-72
2024/01/24 06:48:15;;;;;;;5.68;2.42;;;32.30;99.90;;;;;;4959765;28;20188;-72
2024/01/24 06:50:42;;;;;;;3.60;2.25;;;32.30;99.90;;;;;;4955032;28;20220;-72
2024/01/24 06:53:14;;;;;;;6.03;2.17;;;32.40;99.90;;;;;;4967456;28;20278;-72
2024/01/24 06:55:44;;;;;;;6.00;2.53;;;32.40;99.90;;;;;;4969757;28;20184;-73
2024/01/24 06:58:11;;;;;;;5.80;2.30;;;32.30;99.90;;;;;;4974041;28;20187;-75
2024/01/24 07:00:39;;;;;;;6.35;2.25;;;32.40;99.90;;;;;;4974570;28;20183;-73
2024/01/24 07:03:06;;;;;;;6.75;2.10;;;32.40;99.90;;;;;;4965829;28;20176;-74
2024/01/24 07:05:33;;;;;;;4.78;2.15;;;32.40;99.90;;;;;;4969637;28;20183;-73
2024/01/24 07:08:01;;;;;;;10.05;2.30;;;32.50;99.90;;;;;;4972304;28;20180;-72
2024/01/24 07:10:28;;;;;;;5.47;2.10;;;32.40;99.90;;;;;;4955086;28;20308;-73
2024/01/24 07:12:56;;;;;;;5.43;1.83;;;32.40;99.90;;;;;;4954877;28;20541;-72
2024/01/24 07:15:23;;;;;;;5.57;2.20;;;32.40;99.90;;;;;;4955169;28;20198;-76
2024/01/24 07:17:50;;;;;;;11.45;2.35;;;32.40;99.90;;;;;;4955284;28;20176;-74
2024/01/24 07:20:18;;;;;;;4.70;1.83;;;32.50;99.90;;;;;;4957608;28;20620;-73
2024/01/24 07:22:45;;;;;;;8.57;2.10;;;32.50;99.90;;;;;;4974485;28;20270;-73
2024/01/24 07:25:13;;;;;;;6.70;2.00;;;32.60;99.90;;;;;;4973953;28;20198;-73
2024/01/24 07:27:40;;;;;;;11.75;2.45;;;32.60;99.90;;;;;;4973724;28;20179;-72
2024/01/24 07:30:08;;;;;;;13.05;2.83;;;32.90;99.90;;;;;;4974135;28;20215;-73
2024/01/24 07:32:39;;;;;;;8.48;2.30;;;32.90;99.90;;;;;;4974017;28;20187;-72
2024/01/24 07:35:07;;;;;;;11.55;2.10;;;32.90;99.90;;;;;;4973576;28;20282;-74
2024/01/24 07:37:34;;;;;;;11.95;2.33;;;32.80;99.90;;;;;;4973541;28;20230;-73
2024/01/24 07:40:02;;;;;;;3.63;1.80;;;32.90;99.90;;;;;;4974075;28;20210;-71
2024/01/24 07:42:32;;;;;;;5.40;2.03;;;32.90;99.90;;;;;;4973446;28;20198;-73
2024/01/24 07:45:00;;;;;;;3.13;1.75;;;32.90;99.90;;;;;;4972141;28;20179;-73
2024/01/24 07:47:28;;;;;;;9.15;2.45;;;32.90;99.90;;;;;;4956136;28;20557;-72
2024/01/24 07:49:55;;;;;;;4.35;2.30;;;32.90;99.90;;;;;;4973496;28;20263;-74
2024/01/24 07:52:23;;;;;;;6.18;2.60;;;33.00;99.90;;;;;;4973718;28;20190;-73
2024/01/24 07:54:50;;;;;;;6.78;3.03;;;32.90;99.90;;;;;;4973880;28;20593;-72
2024/01/24 07:57:18;;;;;;;5.55;3.70;;;32.90;99.90;;;;;;4973329;28;20656;-73
2024/01/24 07:59:45;;;;;;;7.60;3.25;;;32.70;99.90;;;;;;4960696;28;20192;-73
2024/01/24 08:02:14;;;;;;;5.32;2.35;;;32.60;99.90;;;;;;4954607;29;20595;-73
2024/01/24 08:04:42;;;;;;;5.93;2.13;;;32.50;99.90;;;;;;4953849;28;20546;-72
2024/01/24 08:07:09;;;;;;;3.95;2.25;;;32.40;99.90;;;;;;4954232;28;20176;-73
2024/01/24 08:09:36;;;;;;;6.45;2.72;;;32.20;99.90;;;;;;4954287;28;20263;-77
2024/01/24 08:12:04;;;;;;;4.85;2.38;;;32.00;99.90;;;;;;4954053;28;20238;-76
2024/01/24 08:14:31;;;;;;;6.53;2.30;;;31.80;99.90;;;;;;4954103;29;20339;-76
2024/01/24 08:17:01;;;;;;;3.65;2.03;;;31.70;99.90;;;;;;4955096;29;20209;-76
2024/01/24 08:19:29;;;;;;;7.75;2.38;;;31.60;99.90;;;;;;4955438;29;20226;-73
2024/01/24 08:21:56;;;;;;;9.82;2.00;;;31.60;99.90;;;;;;4955134;28;20176;-73
2024/01/24 08:24:24;;;;;;;8.77;2.28;;;31.60;99.90;;;;;;4955390;28;20176;-73
2024/01/24 08:26:52;;;;;;;6.10;1.98;;;31.50;99.90;;;;;;4953452;29;20184;-74
2024/01/24 08:29:20;;;;;;;9.80;2.53;;;31.40;99.90;;;;;;4955108;28;20218;-76
2024/01/24 08:31:47;;;;;;;4.88;1.80;;;31.20;99.90;;;;;;4955197;28;20251;-75
2024/01/24 08:34:15;;;;;;;5.63;1.90;;;31.10;99.90;;;;;;4955034;29;20176;-77
2024/01/24 08:36:42;;;;;;;9.15;2.70;;;30.90;99.90;;;;;;4954801;28;20235;-76
2024/01/24 08:39:10;;;;;;;6.70;2.53;;;30.80;99.90;;;;;;4953731;29;20184;-75
2024/01/24 08:41:38;;;;;;;9.77;2.53;;;30.80;99.90;;;;;;4955079;28;20168;-75
2024/01/24 08:44:05;;;;;;;5.63;2.30;;;30.80;99.90;;;;;;4955428;28;20180;-73
2024/01/24 08:46:33;;;;;;;10.45;2.58;;;30.60;99.90;;;;;;4956635;28;20199;-75
2024/01/24 08:49:00;;;;;;;6.47;2.42;;;30.50;99.90;;;;;;4956025;28;20215;-76
2024/01/24 08:51:31;;;;;;;9.27;2.80;;;30.40;99.90;;;;;;4955212;28;20607;-74
2024/01/24 08:54:01;;;;;;;10.57;2.75;;;30.20;99.90;;;;;;4955146;28;20223;-75
2024/01/24 08:56:28;;;;;;;10.57;2.70;;;29.90;99.90;;;;;;4955556;28;20242;-75
2024/01/24 08:58:56;;;;;;;10.70;3.20;;;29.70;99.90;;;;;;4955518;28;20204;-73
2024/01/24 09:01:23;;;;;;;9.97;3.33;;;29.60;99.90;;;;;;4955384;28;20183;-73
2024/01/24 09:03:51;;;;;;;17.13;3.05;;;29.50;99.90;;;;;;4961353;28;20231;-73
2024/01/24 09:06:20;;;;;;;7.15;2.75;;;29.40;99.90;;;;;;4963009;28;20706;-76
2024/01/24 09:08:52;;;;;;;11.67;3.13;;;29.40;99.90;;;;;;4974055;28;20182;-73
2024/01/24 09:11:21;;;;;;;9.40;2.73;;;29.30;99.90;;;;;;4973980;28;20214;-73
2024/01/24 09:13:49;;;;;;;14.40;3.30;;;29.20;99.90;;;;;;4974192;28;20184;-76
2024/01/24 09:16:17;;;;;;;11.03;3.17;;;29.10;99.90;;;;;;4973394;28;20191;-76
2024/01/24 09:18:44;;;;;;;11.63;3.20;;;29.00;99.90;;;;;;4974282;28;20188;-75
2024/01/24 09:21:11;;;;;;;10.00;3.03;;;28.90;99.90;;;;;;4974037;28;20260;-77
2024/01/24 09:23:39;;;;;;;14.10;3.07;;;28.80;99.90;;;;;;4974038;28;20177;-76
2024/01/24 09:26:07;;;;;;;11.60;2.67;;;28.70;99.90;;;;;;4974286;28;20641;-78
2024/01/24 09:28:34;;;;;;;12.10;3.17;;;28.60;99.90;;;;;;4973961;28;20649;-75
2024/01/24 09:31:01;;;;;;;13.00;2.83;;;28.60;99.90;;;;;;4974108;28;20241;-75
2024/01/24 09:33:28;;;;;;;15.83;2.77;;;28.60;99.90;;;;;;4974130;28;20186;-77
2024/01/24 09:35:56;;;;;;;8.83;2.87;;;28.50;99.90;;;;;;4973984;28;20608;-75
2024/01/24 09:38:24;;;;;;;9.40;2.83;;;28.40;99.90;;;;;;4976286;28;20633;-74
2024/01/24 09:40:56;;;;;;;13.60;3.50;;;28.40;99.90;;;;;;4977617;28;20187;-73
2024/01/24 09:43:27;;;;;;;12.53;3.27;;;28.30;99.90;;;;;;4977638;28;20182;-77
2024/01/24 09:45:57;;;;;;;10.73;2.60;;;28.30;99.90;;;;;;4970323;28;20643;-72
2024/01/24 09:48:25;;;;;;;7.77;2.63;;;28.30;99.90;;;;;;4969117;28;20179;-72
2024/01/24 09:50:52;;;;;;;12.13;2.80;;;28.30;99.90;;;;;;4977178;28;20218;-73
2024/01/24 09:53:21;;;;;;;11.57;2.87;;;28.10;99.90;;;;;;4977293;28;20183;-73
2024/01/24 09:55:49;;;;;;;10.90;2.63;;;28.10;99.90;;;;;;4977513;28;20175;-77
2024/01/24 09:58:17;;;;;;;7.60;2.53;;;28.00;99.90;;;;;;4977488;28;20207;-72
2024/01/24 10:00:47;;;;;;;9.13;2.77;;;27.80;99.90;;;;;;4977195;28;20180;-77
2024/01/24 10:03:15;;;;;;;9.40;2.87;;;27.80;99.90;;;;;;4976177;28;20218;-75
2024/01/24 10:05:45;;;;;;;9.67;2.90;;;27.70;99.90;;;;;;4977057;28;20254;-74
2024/01/24 10:08:12;;;;;;;16.57;3.77;;;27.60;99.90;;;;;;4977595;28;20179;-74
2024/01/24 10:10:41;;;;;;;11.00;3.00;;;27.60;99.90;;;;;;4977729;28;20744;-74
2024/01/24 10:13:08;;;;;;;15.33;3.20;;;27.50;99.90;;;;;;4977690;28;20175;-73
2024/01/24 10:15:38;;;;;;;13.57;2.93;;;27.50;99.90;;;;;;4977077;28;20270;-74
2024/01/24 10:18:08;;;;;;;9.60;3.03;;;27.50;99.90;;;;;;4960195;28;20668;-72
2024/01/24 10:20:35;;;;;;;8.00;2.87;;;27.60;99.90;;;;;;4977357;28;20179;-76
2024/01/24 10:23:04;;;;;;;9.70;2.70;;;27.50;99.90;;;;;;4976978;28;20185;-77
2024/01/24 10:25:31;;;;;;;16.03;2.80;;;27.50;99.90;;;;;;4976881;28;20645;-74
2024/01/24 10:27:59;;;;;;;14.73;3.07;;;27.50;99.90;;;;;;4977246;28;20176;-78
2024/01/24 10:30:27;;;;;;;10.90;3.67;;;27.50;99.90;;;;;;4976746;28;20278;-73
2024/01/24 10:32:54;;;;;;;13.17;3.07;;;27.60;99.90;;;;;;4937985;28;20271;-75
2024/01/24 10:35:22;;;;;;;8.33;3.30;;;27.60;99.90;;;;;;4957157;28;20697;-78
2024/01/24 10:37:49;;;;;;;10.93;3.10;;;27.60;99.90;;;;;;4956985;28;20180;-73
2024/01/24 10:40:17;;;;;;;17.93;3.43;;;27.50;99.90;;;;;;4957287;28;20713;-76
2024/01/24 10:42:45;;;;;;;16.07;3.30;;;27.50;99.90;;;;;;4957175;28;20172;-76
2024/01/24 10:45:13;;;;;;;15.63;3.70;;;27.50;99.90;;;;;;4957172;28;20593;-72
2024/01/24 10:47:42;;;;;;;11.30;2.97;;;27.50;99.90;;;;;;4964491;28;20245;-75
2024/01/24 10:50:12;;;;;;;16.27;3.87;;;27.40;99.90;;;;;;4975617;28;20207;-77
2024/01/24 10:52:40;;;;;;;13.03;3.23;;;27.40;99.90;;;;;;4976224;28;20560;-77
2024/01/24 10:55:11;;;;;;;18.00;3.60;;;27.40;99.90;;;;;;4976938;28;20178;-74
2024/01/24 10:57:43;;;;;;;14.77;3.67;;;27.30;99.90;;;;;;4976500;28;20265;-77
2024/01/24 11:00:11;;;;;;;11.47;3.10;;;27.30;99.90;;;;;;4976406;28;20190;-72
2024/01/24 11:02:41;;;;;;;14.63;4.20;;;27.30;99.90;;;;;;4976272;28;20176;-76
2024/01/24 11:05:15;;;;;;;11.50;3.63;;;27.20;99.90;;;;;;4977419;28;20178;-76
2024/01/24 11:07:56;;;;;;;22.90;4.23;;;27.20;99.90;;;;;;4976648;28;20175;-74
2024/01/24 11:10:34;;;;;;;13.00;3.37;;;27.20;99.90;;;;;;4976574;28;20207;-73
2024/01/24 11:13:03;;;;;;;13.23;3.30;;;27.20;99.90;;;;;;4976306;28;20187;-76
2024/01/24 11:15:32;;;;;;;19.07;3.77;;;27.10;99.90;;;;;;4977344;28;20187;-77
2024/01/24 11:18:25;;;;;;;21.97;4.90;;;27.10;99.90;;;;;;4977356;28;20191;-72
2024/01/24 11:20:58;;;;;;;15.33;3.93;;;27.10;99.90;;;;;;4975953;28;20194;-73
2024/01/24 11:23:44;;;;;;;18.87;4.17;;;27.00;99.90;;;;;;4976540;28;20258;-75
2024/01/24 11:26:21;;;;;;;16.43;4.47;;;27.00;99.90;;;;;;4975929;28;20183;-72
2024/01/24 11:28:48;;;;;;;16.73;3.77;;;27.00;99.90;;;;;;4975508;28;20183;-76
2024/01/24 11:31:36;;;;;;;13.53;3.53;;;27.00;99.90;;;;;;4975645;28;20246;-72
2024/01/24 11:34:08;;;;;;;12.57;3.67;;;27.00;99.90;;;;;;4974467;28;20194;-73
2024/01/24 11:36:49;;;;;;;13.37;3.27;;;26.90;99.90;;;;;;4967926;28;20231;-76
2024/01/24 11:39:31;;;;;;;12.07;3.40;;;26.90;99.90;;;;;;4964071;28;20230;-76
2024/01/24 11:42:28;;;;;;;12.00;3.43;;;26.90;99.90;;;;;;4973732;28;20653;-73
2024/01/24 11:45:17;;;;;;;15.73;3.60;;;26.80;99.90;;;;;;4974528;28;20662;-75
2024/01/24 11:47:44;;;;;;;13.47;3.47;;;26.80;99.90;;;;;;4975173;28;20195;-77
2024/01/24 11:50:12;;;;;;;16.93;3.60;;;26.80;99.90;;;;;;4974605;28;20207;-72
2024/01/24 11:52:39;;;;;;;16.53;3.60;;;26.80;99.90;;;;;;4975075;28;20548;-74
2024/01/24 11:55:08;;;;;;;17.17;4.00;;;26.70;99.90;;;;;;4974577;28;20190;-78
2024/01/24 11:57:35;;;;;;;18.70;4.43;;;26.60;99.90;;;;;;4957426;28;20274;-75
2024/01/24 12:00:06;;;;;;;15.63;3.27;;;26.60;99.90;;;;;;4974344;28;20180;-73
2024/01/24 12:02:36;;;;;;;12.17;3.27;;;26.60;99.90;;;;;;4974931;28;20273;-75
2024/01/24 12:05:05;;;;;;;12.47;3.63;;;26.60;99.90;;;;;;4974402;28;20270;-75
2024/01/24 12:07:33;;;;;;;19.13;3.97;;;26.50;99.90;;;;;;4974630;28;20642;-75
2024/01/24 12:10:00;;;;;;;13.43;3.80;;;26.50;99.90;;;;;;4974007;28;20211;-73
2024/01/24 12:12:28;;;;;;;18.73;4.37;;;26.60;99.90;;;;;;4974067;28;20258;-74
2024/01/24 12:14:56;;;;;;;17.03;3.97;;;26.50;99.90;;;;;;4974094;28;20606;-72
2024/01/24 12:17:24;;;;;;;12.97;3.43;;;26.50;99.90;;;;;;4974432;28;20184;-72
2024/01/24 12:19:52;;;;;;;11.73;3.47;;;26.50;99.90;;;;;;4973815;28;20603;-74
2024/01/24 12:22:19;;;;;;;17.17;4.07;;;26.50;99.90;;;;;;4962363;28;20176;-72
2024/01/24 12:24:47;;;;;;;12.13;3.70;;;26.50;99.90;;;;;;4974612;28;20647;-73
2024/01/24 12:27:15;;;;;;;14.50;3.73;;;26.40;99.90;;;;;;4962076;28;20275;-73
2024/01/24 12:29:42;;;;;;;11.47;3.40;;;26.40;99.90;;;;;;4955479;28;20184;-72
2024/01/24 12:32:10;;;;;;;13.60;3.77;;;26.30;99.90;;;;;;4955274;28;20200;-72
2024/01/24 12:34:38;;;;;;;19.43;3.57;;;26.30;99.90;;;;;;4955533;28;20308;-74
2024/01/24 12:37:06;;;;;;;11.40;3.17;;;26.30;99.90;;;;;;4960869;28;20222;-79
2024/01/24 12:39:34;;;;;;;12.57;3.47;;;26.30;99.90;;;;;;4974770;28;20700;-77
2024/01/24 12:42:02;;;;;;;11.33;3.53;;;26.30;99.90;;;;;;4974909;28;20203;-77
2024/01/24 12:44:30;;;;;;;18.60;3.93;;;26.20;99.90;;;;;;4974379;28;20540;-77
2024/01/24 12:47:00;;;;;;;12.03;3.87;;;26.20;99.90;;;;;;4974680;28;20548;-77
2024/01/24 12:49:28;;;;;;;15.87;4.10;;;26.20;99.90;;;;;;4974410;28;20191;-76
2024/01/24 12:51:55;;;;;;;12.63;3.53;;;26.10;99.90;;;;;;4973819;28;20228;-77